Bethel, New York
Current Conditions -  °F | °C
As of 9:35 AM on Tuesday 21 Oct 2014 (Local Time) from KMSV Reporting Station
Overcast Overcast  
Wind Chill: 45°   Ceiling: 400
Heat Index: 45°   Visibility: 1.2mi
Dew Point: 45°   Wind: 3mph
Humidity: 100%   Direction: 90°E
Pressure: 29.91"   Gusts: NA
Location:  41.68°N, 74.86°W
Report Text: KMSV 211335Z AUTO 09003KT 1 1/4SM BKN004 BKN019 OVC050 07/07 A2991 RMK AO1
Loading
Personal Weather Stations






























Interactive Weather Map
Tropical Storm Tracking
New forecast layout! Learn more

10-Day Weather Forecast

Advertisements
Track Severe Weather on mobile